sensor_id;sensor_type;location;lat;lon;timestamp;P1;durP1;ratioP1;P2;durP2;ratioP2
63965;SDS011;50151;52.030;5.350;2024-02-16T11:19:06;8.18;;;5.00;;
63965;SDS011;50151;52.030;5.350;2024-02-16T11:21:33;8.60;;;4.85;;
63965;SDS011;50151;52.030;5.350;2024-02-16T11:24:06;6.47;;;4.65;;
63965;SDS011;50151;52.030;5.350;2024-02-16T11:26:44;13.57;;;5.00;;
63965;SDS011;50151;52.030;5.350;2024-02-16T11:29:11;10.48;;;4.97;;
63965;SDS011;50151;52.030;5.350;2024-02-16T11:31:38;11.93;;;5.78;;
63965;SDS011;50151;52.030;5.350;2024-02-16T11:34:05;6.80;;;3.70;;
63965;SDS011;50151;52.030;5.350;2024-02-16T11:36:32;8.88;;;5.07;;
63965;SDS011;50151;52.030;5.350;2024-02-16T11:39:01;7.07;;;4.78;;
63965;SDS011;50151;52.030;5.350;2024-02-16T11:41:28;8.43;;;4.35;;
63965;SDS011;50151;52.030;5.350;2024-02-16T11:44:01;8.15;;;4.88;;
63965;SDS011;50151;52.030;5.350;2024-02-16T11:46:28;8.70;;;5.18;;
63965;SDS011;50151;52.030;5.350;2024-02-16T11:49:03;10.63;;;5.72;;
63965;SDS011;50151;52.030;5.350;2024-02-16T11:51:32;9.57;;;5.63;;
63965;SDS011;50151;52.030;5.350;2024-02-16T11:53:59;12.25;;;5.90;;
63965;SDS011;50151;52.030;5.350;2024-02-16T11:56:26;15.63;;;5.95;;
63965;SDS011;50151;52.030;5.350;2024-02-16T11:58:53;7.28;;;4.70;;
63965;SDS011;50151;52.030;5.350;2024-02-16T12:01:21;11.82;;;5.68;;
63965;SDS011;50151;52.030;5.350;2024-02-16T12:03:48;10.00;;;5.80;;
63965;SDS011;50151;52.030;5.350;2024-02-16T12:06:20;10.18;;;5.07;;
63965;SDS011;50151;52.030;5.350;2024-02-16T12:08:49;11.27;;;6.00;;
63965;SDS011;50151;52.030;5.350;2024-02-16T12:11:18;9.50;;;5.82;;
63965;SDS011;50151;52.030;5.350;2024-02-16T12:13:45;9.23;;;5.78;;
63965;SDS011;50151;52.030;5.350;2024-02-16T12:16:12;11.65;;;6.32;;
63965;SDS011;50151;52.030;5.350;2024-02-16T12:18:39;10.98;;;5.15;;
63965;SDS011;50151;52.030;5.350;2024-02-16T12:21:06;10.40;;;5.97;;
63965;SDS011;50151;52.030;5.350;2024-02-16T12:23:33;10.95;;;5.97;;
63965;SDS011;50151;52.030;5.350;2024-02-16T12:26:00;13.98;;;6.35;;
63965;SDS011;50151;52.030;5.350;2024-02-16T12:28:29;11.57;;;6.03;;
63965;SDS011;50151;52.030;5.350;2024-02-16T12:31:00;9.68;;;4.85;;
63965;SDS011;50151;52.030;5.350;2024-02-16T12:33:29;6.00;;;4.63;;
63965;SDS011;50151;52.030;5.350;2024-02-16T12:35:57;8.32;;;5.03;;
63965;SDS011;50151;52.030;5.350;2024-02-16T12:38:25;11.85;;;5.00;;
63965;SDS011;50151;52.030;5.350;2024-02-16T12:40:52;6.10;;;4.10;;
63965;SDS011;50151;52.030;5.350;2024-02-16T12:43:18;5.43;;;4.13;;
63965;SDS011;50151;52.030;5.350;2024-02-16T12:45:46;6.25;;;4.07;;
63965;SDS011;50151;52.030;5.350;2024-02-16T12:48:13;4.43;;;3.42;;
63965;SDS011;50151;52.030;5.350;2024-02-16T12:50:41;5.13;;;3.17;;
63965;SDS011;50151;52.030;5.350;2024-02-16T12:53:08;5.38;;;2.88;;
63965;SDS011;50151;52.030;5.350;2024-02-16T12:55:35;5.88;;;2.83;;
63965;SDS011;50151;52.030;5.350;2024-02-16T12:58:02;5.15;;;2.80;;
63965;SDS011;50151;52.030;5.350;2024-02-16T13:00:29;3.97;;;2.55;;
63965;SDS011;50151;52.030;5.350;2024-02-16T13:02:56;2.63;;;1.92;;
63965;SDS011;50151;52.030;5.350;2024-02-16T13:05:23;4.38;;;2.50;;
63965;SDS011;50151;52.030;5.350;2024-02-16T13:07:50;4.70;;;2.20;;
63965;SDS011;50151;52.030;5.350;2024-02-16T13:10:17;2.92;;;2.15;;
63965;SDS011;50151;52.030;5.350;2024-02-16T13:12:44;3.33;;;2.20;;
63965;SDS011;50151;52.030;5.350;2024-02-16T13:15:11;7.07;;;2.60;;
63965;SDS011;50151;52.030;5.350;2024-02-16T13:17:53;2.97;;;1.75;;
63965;SDS011;50151;52.030;5.350;2024-02-16T13:20:21;3.03;;;2.10;;
63965;SDS011;50151;52.030;5.350;2024-02-16T13:22:48;3.28;;;1.80;;
63965;SDS011;50151;52.030;5.350;2024-02-16T13:25:14;3.00;;;1.70;;
63965;SDS011;50151;52.030;5.350;2024-02-16T13:27:42;3.03;;;0.82;;
63965;SDS011;50151;52.030;5.350;2024-02-16T13:30:09;3.90;;;1.60;;
63965;SDS011;50151;52.030;5.350;2024-02-16T13:32:36;1.17;;;0.90;;
63965;SDS011;50151;52.030;5.350;2024-02-16T13:35:06;2.20;;;1.60;;
63965;SDS011;50151;52.030;5.350;2024-02-16T13:37:33;2.30;;;1.65;;
63965;SDS011;50151;52.030;5.350;2024-02-16T13:40:00;3.30;;;1.92;;
63965;SDS011;50151;52.030;5.350;2024-02-16T13:42:30;2.80;;;1.80;;
63965;SDS011;50151;52.030;5.350;2024-02-16T13:44:57;1.95;;;1.63;;
63965;SDS011;50151;52.030;5.350;2024-02-16T13:47:24;3.15;;;1.73;;
63965;SDS011;50151;52.030;5.350;2024-02-16T13:49:51;3.55;;;1.52;;
63965;SDS011;50151;52.030;5.350;2024-02-16T13:52:18;3.35;;;1.52;;
63965;SDS011;50151;52.030;5.350;2024-02-16T13:54:46;2.28;;;1.50;;
63965;SDS011;50151;52.030;5.350;2024-02-16T13:57:13;7.60;;;1.52;;
63965;SDS011;50151;52.030;5.350;2024-02-16T13:59:40;2.80;;;1.30;;
63965;SDS011;50151;52.030;5.350;2024-02-16T14:02:08;4.22;;;1.67;;
63965;SDS011;50151;52.030;5.350;2024-02-16T14:04:36;2.42;;;1.42;;
63965;SDS011;50151;52.030;5.350;2024-02-16T14:07:06;2.47;;;1.45;;
63965;SDS011;50151;52.030;5.350;2024-02-16T14:09:33;3.65;;;1.50;;
63965;SDS011;50151;52.030;5.350;2024-02-16T14:12:00;2.00;;;1.42;;
63965;SDS011;50151;52.030;5.350;2024-02-16T14:14:27;1.75;;;0.98;;
63965;SDS011;50151;52.030;5.350;2024-02-16T14:17:03;2.95;;;1.33;;
63965;SDS011;50151;52.030;5.350;2024-02-16T14:19:31;3.50;;;1.83;;
63965;SDS011;50151;52.030;5.350;2024-02-16T14:22:00;1.83;;;1.15;;
63965;SDS011;50151;52.030;5.350;2024-02-16T14:24:27;2.78;;;2.15;;
63965;SDS011;50151;52.030;5.350;2024-02-16T14:26:54;4.03;;;2.55;;
63965;SDS011;50151;52.030;5.350;2024-02-16T14:29:21;4.95;;;2.97;;
63965;SDS011;50151;52.030;5.350;2024-02-16T14:31:48;5.18;;;2.70;;
63965;SDS011;50151;52.030;5.350;2024-02-16T14:34:15;4.45;;;3.10;;
63965;SDS011;50151;52.030;5.350;2024-02-16T14:36:43;5.45;;;3.05;;
63965;SDS011;50151;52.030;5.350;2024-02-16T14:39:09;5.07;;;2.97;;
63965;SDS011;50151;52.030;5.350;2024-02-16T14:41:38;4.72;;;3.00;;
63965;SDS011;50151;52.030;5.350;2024-02-16T14:44:04;6.55;;;3.05;;
63965;SDS011;50151;52.030;5.350;2024-02-16T14:46:31;2.70;;;1.55;;
63965;SDS011;50151;52.030;5.350;2024-02-16T14:48:58;5.55;;;2.67;;
63965;SDS011;50151;52.030;5.350;2024-02-16T14:51:25;5.60;;;3.13;;
63965;SDS011;50151;52.030;5.350;2024-02-16T14:53:52;4.75;;;2.80;;
63965;SDS011;50151;52.030;5.350;2024-02-16T14:56:19;3.35;;;2.67;;
63965;SDS011;50151;52.030;5.350;2024-02-16T14:58:48;8.00;;;3.15;;
63965;SDS011;50151;52.030;5.350;2024-02-16T15:01:15;4.90;;;2.75;;
63965;SDS011;50151;52.030;5.350;2024-02-16T15:03:42;6.32;;;2.90;;
63965;SDS011;50151;52.030;5.350;2024-02-16T15:06:09;4.68;;;2.33;;
63965;SDS011;50151;52.030;5.350;2024-02-16T15:08:36;5.70;;;2.70;;
63965;SDS011;50151;52.030;5.350;2024-02-16T15:11:02;7.20;;;2.45;;
63965;SDS011;50151;52.030;5.350;2024-02-16T15:13:30;5.35;;;3.10;;
63965;SDS011;50151;52.030;5.350;2024-02-16T15:15:57;6.03;;;3.13;;
63965;SDS011;50151;52.030;5.350;2024-02-16T15:18:25;6.28;;;3.10;;
63965;SDS011;50151;52.030;5.350;2024-02-16T15:20:52;6.03;;;2.97;;
63965;SDS011;50151;52.030;5.350;2024-02-16T15:23:21;3.85;;;2.70;;
63965;SDS011;50151;52.030;5.350;2024-02-16T15:25:48;6.15;;;3.00;;
63965;SDS011;50151;52.030;5.350;2024-02-16T15:28:15;5.72;;;2.63;;
63965;SDS011;50151;52.030;5.350;2024-02-16T15:30:42;6.40;;;3.13;;
63965;SDS011;50151;52.030;5.350;2024-02-16T15:33:09;5.72;;;3.60;;
63965;SDS011;50151;52.030;5.350;2024-02-16T15:35:36;6.70;;;3.13;;
63965;SDS011;50151;52.030;5.350;2024-02-16T15:38:03;6.43;;;3.45;;
63965;SDS011;50151;52.030;5.350;2024-02-16T15:40:30;5.85;;;4.05;;
63965;SDS011;50151;52.030;5.350;2024-02-16T15:43:03;7.07;;;3.67;;
63965;SDS011;50151;52.030;5.350;2024-02-16T15:45:32;5.72;;;3.78;;
63965;SDS011;50151;52.030;5.350;2024-02-16T15:48:02;7.40;;;4.55;;
63965;SDS011;50151;52.030;5.350;2024-02-16T15:50:29;8.82;;;4.60;;
63965;SDS011;50151;52.030;5.350;2024-02-16T15:52:57;7.28;;;4.68;;
63965;SDS011;50151;52.030;5.350;2024-02-16T15:55:23;8.00;;;4.97;;
63965;SDS011;50151;52.030;5.350;2024-02-16T15:57:50;8.10;;;5.25;;
63965;SDS011;50151;52.030;5.350;2024-02-16T16:00:17;6.10;;;4.70;;
63965;SDS011;50151;52.030;5.350;2024-02-16T16:02:44;7.20;;;4.93;;
63965;SDS011;50151;52.030;5.350;2024-02-16T16:05:11;7.05;;;5.22;;
63965;SDS011;50151;52.030;5.350;2024-02-16T16:07:38;5.53;;;4.40;;
63965;SDS011;50151;52.030;5.350;2024-02-16T16:10:08;10.20;;;6.10;;
63965;SDS011;50151;52.030;5.350;2024-02-16T16:12:35;7.72;;;5.70;;
63965;SDS011;50151;52.030;5.350;2024-02-16T16:15:02;7.13;;;5.28;;
63965;SDS011;50151;52.030;5.350;2024-02-16T16:17:30;8.95;;;5.97;;
63965;SDS011;50151;52.030;5.350;2024-02-16T16:19:57;11.38;;;6.68;;
63965;SDS011;50151;52.030;5.350;2024-02-16T16:22:27;8.93;;;5.75;;
63965;SDS011;50151;52.030;5.350;2024-02-16T16:24:54;7.93;;;5.78;;
63965;SDS011;50151;52.030;5.350;2024-02-16T16:27:21;8.38;;;5.72;;
63965;SDS011;50151;52.030;5.350;2024-02-16T16:29:48;7.55;;;6.03;;
63965;SDS011;50151;52.030;5.350;2024-02-16T16:32:14;8.65;;;5.95;;
63965;SDS011;50151;52.030;5.350;2024-02-16T16:34:41;9.63;;;6.15;;
63965;SDS011;50151;52.030;5.350;2024-02-16T16:37:08;9.55;;;5.40;;
63965;SDS011;50151;52.030;5.350;2024-02-16T16:39:35;4.40;;;2.97;;
63965;SDS011;50151;52.030;5.350;2024-02-16T16:42:02;5.97;;;3.05;;
63965;SDS011;50151;52.030;5.350;2024-02-16T16:44:29;5.65;;;2.92;;
63965;SDS011;50151;52.030;5.350;2024-02-16T16:46:55;6.13;;;3.05;;
63965;SDS011;50151;52.030;5.350;2024-02-16T16:49:22;4.57;;;3.15;;
63965;SDS011;50151;52.030;5.350;2024-02-16T16:51:49;8.30;;;4.13;;
63965;SDS011;50151;52.030;5.350;2024-02-16T16:54:17;7.60;;;3.85;;
63965;SDS011;50151;52.030;5.350;2024-02-16T16:56:44;5.75;;;4.80;;
63965;SDS011;50151;52.030;5.350;2024-02-16T16:59:10;5.07;;;3.30;;
63965;SDS011;50151;52.030;5.350;2024-02-16T17:01:38;2.90;;;1.70;;
63965;SDS011;50151;52.030;5.350;2024-02-16T17:04:05;7.75;;;4.68;;
63965;SDS011;50151;52.030;5.350;2024-02-16T17:06:32;9.90;;;5.20;;
63965;SDS011;50151;52.030;5.350;2024-02-16T17:09:00;9.57;;;5.28;;
63965;SDS011;50151;52.030;5.350;2024-02-16T17:11:27;7.70;;;3.33;;
63965;SDS011;50151;52.030;5.350;2024-02-16T17:13:54;8.98;;;5.80;;
63965;SDS011;50151;52.030;5.350;2024-02-16T17:16:20;10.13;;;5.80;;
63965;SDS011;50151;52.030;5.350;2024-02-16T17:18:47;11.00;;;5.35;;
63965;SDS011;50151;52.030;5.350;2024-02-16T17:21:14;8.82;;;5.22;;
63965;SDS011;50151;52.030;5.350;2024-02-16T17:23:41;9.75;;;4.95;;
63965;SDS011;50151;52.030;5.350;2024-02-16T17:26:10;5.28;;;2.78;;
63965;SDS011;50151;52.030;5.350;2024-02-16T17:28:36;9.40;;;5.05;;
63965;SDS011;50151;52.030;5.350;2024-02-16T17:31:03;9.27;;;5.40;;
63965;SDS011;50151;52.030;5.350;2024-02-16T17:33:30;5.75;;;3.42;;
63965;SDS011;50151;52.030;5.350;2024-02-16T17:35:57;9.38;;;4.88;;
63965;SDS011;50151;52.030;5.350;2024-02-16T17:38:24;11.85;;;4.80;;
63965;SDS011;50151;52.030;5.350;2024-02-16T17:40:51;10.30;;;4.82;;
63965;SDS011;50151;52.030;5.350;2024-02-16T17:43:18;9.48;;;4.30;;
63965;SDS011;50151;52.030;5.350;2024-02-16T17:45:44;5.38;;;2.95;;
63965;SDS011;50151;52.030;5.350;2024-02-16T17:48:11;8.80;;;4.47;;
63965;SDS011;50151;52.030;5.350;2024-02-16T17:50:38;9.00;;;4.70;;
63965;SDS011;50151;52.030;5.350;2024-02-16T17:53:05;9.15;;;5.00;;
63965;SDS011;50151;52.030;5.350;2024-02-16T17:55:32;7.93;;;5.30;;
63965;SDS011;50151;52.030;5.350;2024-02-16T17:58:00;9.75;;;5.15;;
63965;SDS011;50151;52.030;5.350;2024-02-16T18:00:28;9.55;;;5.43;;
63965;SDS011;50151;52.030;5.350;2024-02-16T18:02:56;8.75;;;4.95;;
63965;SDS011;50151;52.030;5.350;2024-02-16T18:05:23;23.55;;;11.35;;
63965;SDS011;50151;52.030;5.350;2024-02-16T18:07:50;13.38;;;8.45;;
63965;SDS011;50151;52.030;5.350;2024-02-16T18:10:18;11.25;;;5.55;;
63965;SDS011;50151;52.030;5.350;2024-02-16T18:12:46;8.63;;;5.30;;
63965;SDS011;50151;52.030;5.350;2024-02-16T18:15:13;11.35;;;5.43;;
63965;SDS011;50151;52.030;5.350;2024-02-16T18:17:40;14.35;;;5.68;;
63965;SDS011;50151;52.030;5.350;2024-02-16T18:20:07;6.47;;;5.03;;
63965;SDS011;50151;52.030;5.350;2024-02-16T18:22:38;8.57;;;5.20;;
63965;SDS011;50151;52.030;5.350;2024-02-16T18:25:05;9.60;;;5.50;;
63965;SDS011;50151;52.030;5.350;2024-02-16T18:27:33;9.07;;;5.43;;
63965;SDS011;50151;52.030;5.350;2024-02-16T18:30:00;9.98;;;5.85;;
63965;SDS011;50151;52.030;5.350;2024-02-16T18:32:27;10.05;;;5.72;;
63965;SDS011;50151;52.030;5.350;2024-02-16T18:34:53;11.27;;;5.97;;
63965;SDS011;50151;52.030;5.350;2024-02-16T18:37:20;10.35;;;6.15;;
63965;SDS011;50151;52.030;5.350;2024-02-16T18:39:47;10.27;;;6.18;;
63965;SDS011;50151;52.030;5.350;2024-02-16T18:42:14;15.38;;;6.15;;
63965;SDS011;50151;52.030;5.350;2024-02-16T18:44:41;10.38;;;7.30;;
63965;SDS011;50151;52.030;5.350;2024-02-16T18:47:08;13.32;;;6.18;;
63965;SDS011;50151;52.030;5.350;2024-02-16T18:49:35;10.10;;;6.50;;
63965;SDS011;50151;52.030;5.350;2024-02-16T18:52:01;9.38;;;5.93;;
63965;SDS011;50151;52.030;5.350;2024-02-16T18:54:28;9.02;;;6.18;;
63965;SDS011;50151;52.030;5.350;2024-02-16T18:56:55;11.55;;;7.30;;
63965;SDS011;50151;52.030;5.350;2024-02-16T18:59:22;12.57;;;6.75;;
63965;SDS011;50151;52.030;5.350;2024-02-16T19:01:49;16.45;;;7.32;;
63965;SDS011;50151;52.030;5.350;2024-02-16T19:04:16;11.85;;;6.78;;
63965;SDS011;50151;52.030;5.350;2024-02-16T19:06:43;13.52;;;6.97;;
63965;SDS011;50151;52.030;5.350;2024-02-16T19:09:10;11.23;;;6.75;;
63965;SDS011;50151;52.030;5.350;2024-02-16T19:11:37;14.95;;;7.35;;
63965;SDS011;50151;52.030;5.350;2024-02-16T19:14:04;12.88;;;6.75;;
63965;SDS011;50151;52.030;5.350;2024-02-16T19:16:30;13.23;;;6.57;;
63965;SDS011;50151;52.030;5.350;2024-02-16T19:18:57;15.10;;;7.85;;
63965;SDS011;50151;52.030;5.350;2024-02-16T19:21:24;16.65;;;9.18;;
63965;SDS011;50151;52.030;5.350;2024-02-16T19:23:51;13.35;;;6.95;;
63965;SDS011;50151;52.030;5.350;2024-02-16T19:26:18;10.73;;;6.90;;
63965;SDS011;50151;52.030;5.350;2024-02-16T19:28:45;13.10;;;6.72;;
63965;SDS011;50151;52.030;5.350;2024-02-16T19:31:12;11.18;;;6.40;;
63965;SDS011;50151;52.030;5.350;2024-02-16T19:33:39;12.30;;;7.30;;
63965;SDS011;50151;52.030;5.350;2024-02-16T19:36:06;10.02;;;6.22;;
63965;SDS011;50151;52.030;5.350;2024-02-16T19:38:35;15.68;;;6.90;;
63965;SDS011;50151;52.030;5.350;2024-02-16T19:41:02;11.98;;;7.15;;
63965;SDS011;50151;52.030;5.350;2024-02-16T19:43:30;9.15;;;6.25;;
63965;SDS011;50151;52.030;5.350;2024-02-16T19:45:56;11.52;;;6.50;;
63965;SDS011;50151;52.030;5.350;2024-02-16T19:48:24;9.13;;;6.05;;
63965;SDS011;50151;52.030;5.350;2024-02-16T19:50:51;12.85;;;6.88;;
63965;SDS011;50151;52.030;5.350;2024-02-16T19:53:19;11.25;;;5.93;;
63965;SDS011;50151;52.030;5.350;2024-02-16T19:55:45;17.77;;;6.10;;
63965;SDS011;50151;52.030;5.350;2024-02-16T19:58:13;11.95;;;6.88;;
63965;SDS011;50151;52.030;5.350;2024-02-16T20:00:41;10.63;;;6.38;;
63965;SDS011;50151;52.030;5.350;2024-02-16T20:03:09;10.50;;;5.80;;
63965;SDS011;50151;52.030;5.350;2024-02-16T20:05:36;11.50;;;6.10;;
63965;SDS011;50151;52.030;5.350;2024-02-16T20:08:02;14.10;;;5.88;;
63965;SDS011;50151;52.030;5.350;2024-02-16T20:10:31;12.68;;;6.35;;
63965;SDS011;50151;52.030;5.350;2024-02-16T20:12:57;8.35;;;5.50;;
63965;SDS011;50151;52.030;5.350;2024-02-16T20:15:24;9.52;;;5.93;;
63965;SDS011;50151;52.030;5.350;2024-02-16T20:17:58;8.68;;;6.10;;
63965;SDS011;50151;52.030;5.350;2024-02-16T20:20:28;11.68;;;7.10;;
63965;SDS011;50151;52.030;5.350;2024-02-16T20:22:55;12.60;;;6.65;;
63965;SDS011;50151;52.030;5.350;2024-02-16T20:25:22;10.70;;;5.88;;
63965;SDS011;50151;52.030;5.350;2024-02-16T20:27:49;10.00;;;6.20;;
63965;SDS011;50151;52.030;5.350;2024-02-16T20:30:17;12.43;;;6.38;;
63965;SDS011;50151;52.030;5.350;2024-02-16T20:32:44;12.60;;;6.30;;
63965;SDS011;50151;52.030;5.350;2024-02-16T20:35:12;12.15;;;6.05;;
63965;SDS011;50151;52.030;5.350;2024-02-16T20:37:38;14.77;;;7.68;;
63965;SDS011;50151;52.030;5.350;2024-02-16T20:40:05;17.73;;;7.95;;
63965;SDS011;50151;52.030;5.350;2024-02-16T20:42:33;18.88;;;8.55;;
63965;SDS011;50151;52.030;5.350;2024-02-16T20:45:00;19.10;;;10.20;;
63965;SDS011;50151;52.030;5.350;2024-02-16T20:47:27;14.63;;;8.65;;
63965;SDS011;50151;52.030;5.350;2024-02-16T20:49:53;14.88;;;8.93;;
63965;SDS011;50151;52.030;5.350;2024-02-16T20:52:21;13.45;;;8.38;;
63965;SDS011;50151;52.030;5.350;2024-02-16T20:54:48;18.67;;;8.50;;
63965;SDS011;50151;52.030;5.350;2024-02-16T20:57:15;19.85;;;9.77;;
63965;SDS011;50151;52.030;5.350;2024-02-16T20:59:42;15.65;;;9.45;;
63965;SDS011;50151;52.030;5.350;2024-02-16T21:02:09;17.73;;;10.60;;
63965;SDS011;50151;52.030;5.350;2024-02-16T21:04:36;14.23;;;8.23;;
63965;SDS011;50151;52.030;5.350;2024-02-16T21:07:03;25.75;;;15.00;;
63965;SDS011;50151;52.030;5.350;2024-02-16T21:09:30;25.95;;;14.48;;
63965;SDS011;50151;52.030;5.350;2024-02-16T21:11:58;19.38;;;11.60;;
63965;SDS011;50151;52.030;5.350;2024-02-16T21:14:26;17.50;;;9.25;;
63965;SDS011;50151;52.030;5.350;2024-02-16T21:16:53;10.95;;;7.20;;
63965;SDS011;50151;52.030;5.350;2024-02-16T21:19:20;15.80;;;8.38;;
63965;SDS011;50151;52.030;5.350;2024-02-16T21:21:47;13.48;;;8.25;;
63965;SDS011;50151;52.030;5.350;2024-02-16T21:24:15;14.60;;;9.85;;
63965;SDS011;50151;52.030;5.350;2024-02-16T21:26:48;18.52;;;11.57;;
63965;SDS011;50151;52.030;5.350;2024-02-16T21:29:16;19.02;;;10.98;;
